Terminal Aerodrome Forecast
Issued by NWS Wakefield, VA

Home | Current Version | Previous Version | Text Only | Print | Product List | Glossary On
Versions: 1 2 3 4 5 6 7 8 9 10 11 12 13 14 15 16 17 18 19 20 21 22 23 24 25 26 27 28 29 30 31 32 33 34 35 36 37 38 39 40 41 42 43 44 45 46 47 48 49 50
000
FTUS41 KAKQ 101723
TAFRIC
TAF
KRIC 101723Z 1018/1118 23012KT 6SM -SHRA BKN020 OVC040
     FM102000 28008KT 6SM -SHRA OVC020
     FM110100 33009KT 5SM -RA BR OVC015
     FM110400 36012KT 3SM -RA BR OVC008
     FM111000 36010KT 3SM -RASN BR OVC006
     FM111300 36009KT P6SM BKN012=

USA.gov is the U.S. government's official web portal to all federal, state and local government web resources and services.